KSMO/SMO METAR and TAF weather

Enter ICAO airport designator
Station Type Date Time Source
KSMO METAR 2021/04/13 05:51 UTC NOAA

KSMO 130551Z AUTO 27003KT 10SM OVC025 14/10 A2988 RMK AO2 SLP118 T01390100 10167 20133 51010


Station Type Date Time Source
KSMO Decoded METAR 2021/04/13 05:51 UTC NOAA

SANTA MONICA MUNICIPAL AIRPORT , CA, United States (KSMO) 34-01N 118-27W 57M
Apr 13, 2021 - 01:51 AM EDT / 2021.04.13 0551 UTC
Wind: from the W (270 degrees) at 3 MPH (3 KT):0
Visibility: 10 mile(s):0
Sky conditions: overcast
Temperature: 57.0 F (13.9 C)
Dew Point: 50.0 F (10.0 C)
Relative Humidity: 77%
Pressure (altimeter): 29.88 in. Hg (1011 hPa)
Pressure tendency: 0.03 inches (1.0 hPa) higher than three hours ago
ob: KSMO 130551Z AUTO 27003KT 10SM OVC025 14/10 A2988 RMK AO2 SLP118 T01390100 10167 20133 51010
cycle: 6

Station Type Date Time Source
KSMO TAF 2021/04/13 07:30 UTC NOAA

TAF
AMD KSMO 130630Z 1307/1406 VRB03KT P6SM OVC025
FM132200 24010KT P6SM BKN025
FM140400 24010G15KT P6SM OVC020

Example: see airport list